sensor_id;sensor_type;location;lat;lon;timestamp;P1;durP1;ratioP1;P2;durP2;ratioP2
64986;SDS011;67903;52.108;9.358;2023-06-26T00:01:26;9.05;;;8.02;;
64986;SDS011;67903;52.108;9.358;2023-06-26T00:04:15;8.57;;;7.88;;
64986;SDS011;67903;52.108;9.358;2023-06-26T00:07:01;8.73;;;7.82;;
64986;SDS011;67903;52.108;9.358;2023-06-26T00:09:46;8.25;;;7.55;;
64986;SDS011;67903;52.108;9.358;2023-06-26T00:12:32;8.52;;;7.82;;
64986;SDS011;67903;52.108;9.358;2023-06-26T00:15:18;8.35;;;7.55;;
64986;SDS011;67903;52.108;9.358;2023-06-26T00:18:04;8.40;;;7.55;;
64986;SDS011;67903;52.108;9.358;2023-06-26T00:20:50;8.18;;;7.38;;
64986;SDS011;67903;52.108;9.358;2023-06-26T00:23:36;8.82;;;7.95;;
64986;SDS011;67903;52.108;9.358;2023-06-26T00:26:24;8.80;;;8.10;;
64986;SDS011;67903;52.108;9.358;2023-06-26T00:29:10;9.02;;;8.23;;
64986;SDS011;67903;52.108;9.358;2023-06-26T00:31:56;8.38;;;7.55;;
64986;SDS011;67903;52.108;9.358;2023-06-26T00:34:42;9.40;;;8.60;;
64986;SDS011;67903;52.108;9.358;2023-06-26T00:37:27;8.80;;;8.02;;
64986;SDS011;67903;52.108;9.358;2023-06-26T00:40:14;8.85;;;8.05;;
64986;SDS011;67903;52.108;9.358;2023-06-26T00:42:59;9.23;;;8.43;;
64986;SDS011;67903;52.108;9.358;2023-06-26T00:45:45;8.68;;;7.97;;
64986;SDS011;67903;52.108;9.358;2023-06-26T00:48:31;8.82;;;7.97;;
64986;SDS011;67903;52.108;9.358;2023-06-26T00:51:17;8.35;;;7.55;;
64986;SDS011;67903;52.108;9.358;2023-06-26T00:54:04;8.90;;;8.13;;
64986;SDS011;67903;52.108;9.358;2023-06-26T00:56:50;8.13;;;7.50;;
64986;SDS011;67903;52.108;9.358;2023-06-26T00:59:36;8.82;;;7.85;;
64986;SDS011;67903;52.108;9.358;2023-06-26T01:02:22;9.10;;;8.30;;
64986;SDS011;67903;52.108;9.358;2023-06-26T01:05:08;8.98;;;8.18;;
64986;SDS011;67903;52.108;9.358;2023-06-26T01:07:58;8.02;;;7.32;;
64986;SDS011;67903;52.108;9.358;2023-06-26T01:10:44;8.68;;;7.53;;
64986;SDS011;67903;52.108;9.358;2023-06-26T01:13:30;8.95;;;8.15;;
64986;SDS011;67903;52.108;9.358;2023-06-26T01:16:17;11.55;;;7.88;;
64986;SDS011;67903;52.108;9.358;2023-06-26T01:19:09;8.10;;;7.40;;
64986;SDS011;67903;52.108;9.358;2023-06-26T01:21:58;8.38;;;7.60;;
64986;SDS011;67903;52.108;9.358;2023-06-26T01:25:29;8.32;;;7.50;;
64986;SDS011;67903;52.108;9.358;2023-06-26T01:27:55;7.97;;;7.22;;
64986;SDS011;67903;52.108;9.358;2023-06-26T01:30:42;8.20;;;7.40;;
64986;SDS011;67903;52.108;9.358;2023-06-26T01:33:28;8.80;;;7.95;;
64986;SDS011;67903;52.108;9.358;2023-06-26T01:36:15;9.20;;;8.30;;
64986;SDS011;67903;52.108;9.358;2023-06-26T01:39:02;9.07;;;8.27;;
64986;SDS011;67903;52.108;9.358;2023-06-26T01:41:48;8.98;;;8.13;;
64986;SDS011;67903;52.108;9.358;2023-06-26T01:44:35;9.60;;;8.40;;
64986;SDS011;67903;52.108;9.358;2023-06-26T01:47:24;8.20;;;7.43;;
64986;SDS011;67903;52.108;9.358;2023-06-26T01:50:17;8.82;;;7.95;;
64986;SDS011;67903;52.108;9.358;2023-06-26T01:53:10;9.93;;;8.00;;
64986;SDS011;67903;52.108;9.358;2023-06-26T01:56:11;8.85;;;8.05;;
64986;SDS011;67903;52.108;9.358;2023-06-26T01:58:58;9.57;;;8.77;;
64986;SDS011;67903;52.108;9.358;2023-06-26T02:01:46;8.52;;;7.82;;
64986;SDS011;67903;52.108;9.358;2023-06-26T02:04:33;10.93;;;8.18;;
64986;SDS011;67903;52.108;9.358;2023-06-26T02:07:18;9.18;;;8.35;;
64986;SDS011;67903;52.108;9.358;2023-06-26T02:10:05;10.05;;;8.82;;
64986;SDS011;67903;52.108;9.358;2023-06-26T02:12:51;8.57;;;7.85;;
64986;SDS011;67903;52.108;9.358;2023-06-26T02:15:39;8.93;;;8.02;;
64986;SDS011;67903;52.108;9.358;2023-06-26T02:18:26;8.93;;;8.13;;
64986;SDS011;67903;52.108;9.358;2023-06-26T02:21:12;8.98;;;8.07;;
64986;SDS011;67903;52.108;9.358;2023-06-26T02:23:59;9.05;;;8.23;;
64986;SDS011;67903;52.108;9.358;2023-06-26T02:26:44;8.88;;;8.10;;
64986;SDS011;67903;52.108;9.358;2023-06-26T02:29:30;8.93;;;8.02;;
64986;SDS011;67903;52.108;9.358;2023-06-26T02:32:17;9.15;;;8.25;;
64986;SDS011;67903;52.108;9.358;2023-06-26T02:35:03;8.82;;;7.93;;
64986;SDS011;67903;52.108;9.358;2023-06-26T02:37:49;8.55;;;7.75;;
64986;SDS011;67903;52.108;9.358;2023-06-26T02:40:35;9.60;;;8.60;;
64986;SDS011;67903;52.108;9.358;2023-06-26T02:43:21;8.85;;;8.00;;
64986;SDS011;67903;52.108;9.358;2023-06-26T02:46:07;8.00;;;7.30;;
64986;SDS011;67903;52.108;9.358;2023-06-26T02:48:53;8.13;;;7.25;;
64986;SDS011;67903;52.108;9.358;2023-06-26T02:51:40;8.98;;;7.93;;
64986;SDS011;67903;52.108;9.358;2023-06-26T02:54:33;8.00;;;7.30;;
64986;SDS011;67903;52.108;9.358;2023-06-26T02:57:21;10.02;;;8.20;;
64986;SDS011;67903;52.108;9.358;2023-06-26T03:00:10;8.90;;;8.00;;
64986;SDS011;67903;52.108;9.358;2023-06-26T03:03:02;8.40;;;7.55;;
64986;SDS011;67903;52.108;9.358;2023-06-26T03:05:49;8.35;;;7.45;;
64986;SDS011;67903;52.108;9.358;2023-06-26T03:08:36;8.30;;;7.20;;
64986;SDS011;67903;52.108;9.358;2023-06-26T03:11:26;9.63;;;7.93;;
64986;SDS011;67903;52.108;9.358;2023-06-26T03:14:14;8.90;;;8.10;;
64986;SDS011;67903;52.108;9.358;2023-06-26T03:17:00;8.20;;;7.43;;
64986;SDS011;67903;52.108;9.358;2023-06-26T03:19:53;9.07;;;8.23;;
64986;SDS011;67903;52.108;9.358;2023-06-26T03:22:47;8.35;;;7.65;;
64986;SDS011;67903;52.108;9.358;2023-06-26T03:25:34;8.88;;;7.78;;
64986;SDS011;67903;52.108;9.358;2023-06-26T03:28:50;9.30;;;7.80;;
64986;SDS011;67903;52.108;9.358;2023-06-26T03:31:35;9.50;;;8.25;;
64986;SDS011;67903;52.108;9.358;2023-06-26T03:34:22;9.25;;;7.85;;
64986;SDS011;67903;52.108;9.358;2023-06-26T03:37:08;8.43;;;7.63;;
64986;SDS011;67903;52.108;9.358;2023-06-26T03:39:54;8.23;;;7.50;;
64986;SDS011;67903;52.108;9.358;2023-06-26T03:42:41;8.70;;;7.90;;
64986;SDS011;67903;52.108;9.358;2023-06-26T03:45:27;8.45;;;7.65;;
64986;SDS011;67903;52.108;9.358;2023-06-26T03:48:13;9.68;;;7.53;;
64986;SDS011;67903;52.108;9.358;2023-06-26T03:50:59;7.82;;;7.13;;
64986;SDS011;67903;52.108;9.358;2023-06-26T03:53:47;10.55;;;7.85;;
64986;SDS011;67903;52.108;9.358;2023-06-26T03:56:33;9.40;;;6.85;;
64986;SDS011;67903;52.108;9.358;2023-06-26T03:59:19;8.07;;;7.28;;
64986;SDS011;67903;52.108;9.358;2023-06-26T04:02:04;7.93;;;7.13;;
64986;SDS011;67903;52.108;9.358;2023-06-26T04:04:50;9.85;;;7.07;;
64986;SDS011;67903;52.108;9.358;2023-06-26T04:07:38;8.05;;;7.25;;
64986;SDS011;67903;52.108;9.358;2023-06-26T04:10:24;9.82;;;7.63;;
64986;SDS011;67903;52.108;9.358;2023-06-26T04:13:10;8.82;;;7.53;;
64986;SDS011;67903;52.108;9.358;2023-06-26T04:15:56;7.95;;;7.22;;
64986;SDS011;67903;52.108;9.358;2023-06-26T04:18:42;7.43;;;6.47;;
64986;SDS011;67903;52.108;9.358;2023-06-26T04:21:28;7.28;;;6.53;;
64986;SDS011;67903;52.108;9.358;2023-06-26T04:24:14;7.72;;;7.03;;
64986;SDS011;67903;52.108;9.358;2023-06-26T04:27:00;8.15;;;7.00;;
64986;SDS011;67903;52.108;9.358;2023-06-26T04:29:45;10.13;;;7.72;;
64986;SDS011;67903;52.108;9.358;2023-06-26T04:32:31;8.00;;;7.15;;
64986;SDS011;67903;52.108;9.358;2023-06-26T04:35:18;7.88;;;7.13;;
64986;SDS011;67903;52.108;9.358;2023-06-26T04:38:05;9.18;;;7.40;;
64986;SDS011;67903;52.108;9.358;2023-06-26T04:40:51;7.90;;;7.10;;
64986;SDS011;67903;52.108;9.358;2023-06-26T04:43:37;9.13;;;7.18;;
64986;SDS011;67903;52.108;9.358;2023-06-26T04:46:23;7.88;;;6.60;;
64986;SDS011;67903;52.108;9.358;2023-06-26T04:49:09;9.10;;;8.13;;
64986;SDS011;67903;52.108;9.358;2023-06-26T04:51:55;10.43;;;7.55;;
64986;SDS011;67903;52.108;9.358;2023-06-26T04:54:41;10.18;;;7.50;;
64986;SDS011;67903;52.108;9.358;2023-06-26T04:57:27;12.05;;;7.80;;
64986;SDS011;67903;52.108;9.358;2023-06-26T05:00:13;9.02;;;7.25;;
64986;SDS011;67903;52.108;9.358;2023-06-26T05:03:00;8.20;;;7.10;;
64986;SDS011;67903;52.108;9.358;2023-06-26T05:05:47;11.00;;;7.47;;
64986;SDS011;67903;52.108;9.358;2023-06-26T05:08:33;8.90;;;7.40;;
64986;SDS011;67903;52.108;9.358;2023-06-26T05:11:19;9.55;;;7.05;;
64986;SDS011;67903;52.108;9.358;2023-06-26T05:14:05;7.05;;;6.35;;
64986;SDS011;67903;52.108;9.358;2023-06-26T05:16:52;6.95;;;6.35;;
64986;SDS011;67903;52.108;9.358;2023-06-26T05:19:38;8.02;;;7.15;;
64986;SDS011;67903;52.108;9.358;2023-06-26T05:22:24;8.48;;;7.05;;
64986;SDS011;67903;52.108;9.358;2023-06-26T05:25:11;7.63;;;6.88;;
64986;SDS011;67903;52.108;9.358;2023-06-26T05:27:57;7.72;;;6.95;;
64986;SDS011;67903;52.108;9.358;2023-06-26T05:30:43;8.55;;;6.15;;
64986;SDS011;67903;52.108;9.358;2023-06-26T05:33:29;6.85;;;6.15;;
64986;SDS011;67903;52.108;9.358;2023-06-26T05:36:16;9.40;;;6.65;;
64986;SDS011;67903;52.108;9.358;2023-06-26T05:39:02;7.57;;;6.75;;
64986;SDS011;67903;52.108;9.358;2023-06-26T05:41:48;7.72;;;6.55;;
64986;SDS011;67903;52.108;9.358;2023-06-26T05:44:34;15.63;;;9.15;;
64986;SDS011;67903;52.108;9.358;2023-06-26T05:47:20;6.68;;;6.05;;
64986;SDS011;67903;52.108;9.358;2023-06-26T05:50:06;10.63;;;8.00;;
64986;SDS011;67903;52.108;9.358;2023-06-26T05:52:52;7.82;;;7.00;;
64986;SDS011;67903;52.108;9.358;2023-06-26T05:55:39;9.65;;;7.35;;
64986;SDS011;67903;52.108;9.358;2023-06-26T05:58:27;9.20;;;6.68;;
64986;SDS011;67903;52.108;9.358;2023-06-26T06:01:13;8.30;;;7.18;;
64986;SDS011;67903;52.108;9.358;2023-06-26T06:03:59;25.60;;;20.73;;
64986;SDS011;67903;52.108;9.358;2023-06-26T06:06:45;7.50;;;6.80;;
64986;SDS011;67903;52.108;9.358;2023-06-26T06:09:31;7.72;;;6.40;;
64986;SDS011;67903;52.108;9.358;2023-06-26T06:12:17;9.23;;;6.20;;
64986;SDS011;67903;52.108;9.358;2023-06-26T06:15:03;7.20;;;6.50;;
64986;SDS011;67903;52.108;9.358;2023-06-26T06:17:49;9.45;;;6.18;;
64986;SDS011;67903;52.108;9.358;2023-06-26T06:20:35;6.88;;;6.03;;
64986;SDS011;67903;52.108;9.358;2023-06-26T06:23:22;7.38;;;6.68;;
64986;SDS011;67903;52.108;9.358;2023-06-26T06:26:08;12.68;;;7.10;;
64986;SDS011;67903;52.108;9.358;2023-06-26T06:28:54;7.30;;;6.60;;
64986;SDS011;67903;52.108;9.358;2023-06-26T06:31:40;7.97;;;6.47;;
64986;SDS011;67903;52.108;9.358;2023-06-26T06:34:26;7.10;;;6.45;;
64986;SDS011;67903;52.108;9.358;2023-06-26T06:37:11;7.15;;;6.47;;
64986;SDS011;67903;52.108;9.358;2023-06-26T06:39:57;7.03;;;6.40;;
64986;SDS011;67903;52.108;9.358;2023-06-26T06:42:44;7.88;;;6.07;;
64986;SDS011;67903;52.108;9.358;2023-06-26T06:45:30;7.03;;;6.43;;
64986;SDS011;67903;52.108;9.358;2023-06-26T06:48:16;7.43;;;6.53;;
64986;SDS011;67903;52.108;9.358;2023-06-26T06:51:02;7.10;;;6.43;;
64986;SDS011;67903;52.108;9.358;2023-06-26T06:53:48;6.05;;;5.55;;
64986;SDS011;67903;52.108;9.358;2023-06-26T06:56:34;7.47;;;6.78;;
64986;SDS011;67903;52.108;9.358;2023-06-26T06:59:20;7.93;;;6.55;;
64986;SDS011;67903;52.108;9.358;2023-06-26T07:02:07;6.57;;;5.97;;
64986;SDS011;67903;52.108;9.358;2023-06-26T07:04:53;7.75;;;6.97;;
64986;SDS011;67903;52.108;9.358;2023-06-26T07:07:39;7.13;;;6.43;;
64986;SDS011;67903;52.108;9.358;2023-06-26T07:10:25;7.65;;;6.82;;
64986;SDS011;67903;52.108;9.358;2023-06-26T07:13:11;7.32;;;6.55;;
64986;SDS011;67903;52.108;9.358;2023-06-26T07:15:57;8.32;;;5.82;;
64986;SDS011;67903;52.108;9.358;2023-06-26T07:18:43;6.97;;;6.32;;
64986;SDS011;67903;52.108;9.358;2023-06-26T07:21:29;7.88;;;6.80;;
64986;SDS011;67903;52.108;9.358;2023-06-26T07:24:14;6.93;;;6.32;;
64986;SDS011;67903;52.108;9.358;2023-06-26T07:27:01;5.95;;;5.45;;
64986;SDS011;67903;52.108;9.358;2023-06-26T07:29:46;7.20;;;6.50;;
64986;SDS011;67903;52.108;9.358;2023-06-26T07:32:32;7.55;;;6.68;;
64986;SDS011;67903;52.108;9.358;2023-06-26T07:35:18;7.07;;;6.43;;
64986;SDS011;67903;52.108;9.358;2023-06-26T07:38:04;6.45;;;5.85;;
64986;SDS011;67903;52.108;9.358;2023-06-26T07:40:50;6.80;;;6.18;;
64986;SDS011;67903;52.108;9.358;2023-06-26T07:43:36;7.03;;;6.25;;
64986;SDS011;67903;52.108;9.358;2023-06-26T07:46:22;7.60;;;6.50;;
64986;SDS011;67903;52.108;9.358;2023-06-26T07:49:08;6.95;;;6.35;;
64986;SDS011;67903;52.108;9.358;2023-06-26T07:51:53;7.40;;;6.22;;
64986;SDS011;67903;52.108;9.358;2023-06-26T07:54:39;6.93;;;6.32;;
64986;SDS011;67903;52.108;9.358;2023-06-26T07:57:25;7.15;;;6.38;;
64986;SDS011;67903;52.108;9.358;2023-06-26T08:00:11;7.47;;;6.68;;
64986;SDS011;67903;52.108;9.358;2023-06-26T08:03:00;10.38;;;6.43;;
64986;SDS011;67903;52.108;9.358;2023-06-26T08:05:47;7.72;;;6.78;;
64986;SDS011;67903;52.108;9.358;2023-06-26T08:08:33;7.95;;;6.78;;
64986;SDS011;67903;52.108;9.358;2023-06-26T08:11:19;8.35;;;6.50;;
64986;SDS011;67903;52.108;9.358;2023-06-26T08:14:05;7.05;;;6.32;;
64986;SDS011;67903;52.108;9.358;2023-06-26T08:16:51;7.40;;;6.70;;
64986;SDS011;67903;52.108;9.358;2023-06-26T08:19:37;8.15;;;7.25;;
64986;SDS011;67903;52.108;9.358;2023-06-26T08:22:23;7.45;;;6.75;;
64986;SDS011;67903;52.108;9.358;2023-06-26T08:25:09;7.80;;;7.10;;
64986;SDS011;67903;52.108;9.358;2023-06-26T08:27:55;7.88;;;7.13;;
64986;SDS011;67903;52.108;9.358;2023-06-26T08:30:41;7.78;;;6.97;;
64986;SDS011;67903;52.108;9.358;2023-06-26T08:33:30;8.52;;;7.15;;
64986;SDS011;67903;52.108;9.358;2023-06-26T08:36:16;8.10;;;7.30;;
64986;SDS011;67903;52.108;9.358;2023-06-26T08:39:02;7.80;;;7.03;;
64986;SDS011;67903;52.108;9.358;2023-06-26T08:41:49;8.75;;;7.82;;
64986;SDS011;67903;52.108;9.358;2023-06-26T08:44:35;9.70;;;7.63;;
64986;SDS011;67903;52.108;9.358;2023-06-26T08:47:37;8.95;;;7.15;;
64986;SDS011;67903;52.108;9.358;2023-06-26T08:50:23;8.23;;;7.28;;
64986;SDS011;67903;52.108;9.358;2023-06-26T08:56:17;7.55;;;6.78;;
64986;SDS011;67903;52.108;9.358;2023-06-26T08:59:06;7.70;;;6.68;;
64986;SDS011;67903;52.108;9.358;2023-06-26T09:01:52;9.27;;;6.60;;
64986;SDS011;67903;52.108;9.358;2023-06-26T09:04:39;8.32;;;6.82;;
64986;SDS011;67903;52.108;9.358;2023-06-26T09:07:25;9.13;;;7.05;;
64986;SDS011;67903;52.108;9.358;2023-06-26T09:10:11;6.93;;;6.32;;
64986;SDS011;67903;52.108;9.358;2023-06-26T09:12:57;11.00;;;6.82;;
64986;SDS011;67903;52.108;9.358;2023-06-26T09:15:44;10.93;;;6.75;;
64986;SDS011;67903;52.108;9.358;2023-06-26T09:18:30;10.68;;;6.88;;
64986;SDS011;67903;52.108;9.358;2023-06-26T09:21:17;9.50;;;6.95;;
64986;SDS011;67903;52.108;9.358;2023-06-26T09:24:03;7.32;;;6.68;;
64986;SDS011;67903;52.108;9.358;2023-06-26T09:26:49;7.72;;;6.82;;
64986;SDS011;67903;52.108;9.358;2023-06-26T09:29:35;6.72;;;6.13;;
64986;SDS011;67903;52.108;9.358;2023-06-26T09:32:23;9.18;;;7.25;;
64986;SDS011;67903;52.108;9.358;2023-06-26T09:35:10;8.32;;;7.15;;
64986;SDS011;67903;52.108;9.358;2023-06-26T09:37:56;13.02;;;7.72;;
64986;SDS011;67903;52.108;9.358;2023-06-26T09:40:41;9.18;;;7.68;;
64986;SDS011;67903;52.108;9.358;2023-06-26T09:43:28;8.35;;;7.00;;
64986;SDS011;67903;52.108;9.358;2023-06-26T09:46:16;8.63;;;7.05;;
64986;SDS011;67903;52.108;9.358;2023-06-26T09:49:04;11.27;;;7.18;;
64986;SDS011;67903;52.108;9.358;2023-06-26T09:51:50;9.18;;;8.00;;
64986;SDS011;67903;52.108;9.358;2023-06-26T09:54:36;9.52;;;8.50;;
64986;SDS011;67903;52.108;9.358;2023-06-26T09:57:22;9.35;;;8.45;;
64986;SDS011;67903;52.108;9.358;2023-06-26T10:00:08;9.70;;;8.70;;
64986;SDS011;67903;52.108;9.358;2023-06-26T10:03:00;9.00;;;8.02;;
64986;SDS011;67903;52.108;9.358;2023-06-26T10:05:47;8.80;;;7.80;;
64986;SDS011;67903;52.108;9.358;2023-06-26T10:08:34;16.02;;;9.07;;
64986;SDS011;67903;52.108;9.358;2023-06-26T10:11:21;10.43;;;9.38;;
64986;SDS011;67903;52.108;9.358;2023-06-26T10:14:08;10.27;;;9.18;;
64986;SDS011;67903;52.108;9.358;2023-06-26T10:17:13;12.50;;;8.70;;
64986;SDS011;67903;52.108;9.358;2023-06-26T10:20:01;9.90;;;8.95;;
64986;SDS011;67903;52.108;9.358;2023-06-26T10:22:51;11.38;;;9.20;;
64986;SDS011;67903;52.108;9.358;2023-06-26T10:25:39;13.07;;;8.32;;
64986;SDS011;67903;52.108;9.358;2023-06-26T10:28:29;10.95;;;8.45;;
64986;SDS011;67903;52.108;9.358;2023-06-26T10:31:16;10.75;;;8.82;;
64986;SDS011;67903;52.108;9.358;2023-06-26T10:34:03;14.63;;;9.05;;
64986;SDS011;67903;52.108;9.358;2023-06-26T10:36:58;9.50;;;8.50;;
64986;SDS011;67903;52.108;9.358;2023-06-26T10:39:45;14.43;;;8.10;;
64986;SDS011;67903;52.108;9.358;2023-06-26T10:42:35;21.40;;;8.93;;
64986;SDS011;67903;52.108;9.358;2023-06-26T10:45:22;19.90;;;10.00;;
64986;SDS011;67903;52.108;9.358;2023-06-26T10:48:08;16.45;;;9.02;;
64986;SDS011;67903;52.108;9.358;2023-06-26T10:50:54;13.15;;;8.25;;
64986;SDS011;67903;52.108;9.358;2023-06-26T10:53:40;10.40;;;7.50;;
64986;SDS011;67903;52.108;9.358;2023-06-26T10:56:41;13.10;;;8.55;;
64986;SDS011;67903;52.108;9.358;2023-06-26T10:59:28;13.73;;;8.50;;
64986;SDS011;67903;52.108;9.358;2023-06-26T11:02:14;8.80;;;6.65;;
64986;SDS011;67903;52.108;9.358;2023-06-26T11:05:01;7.45;;;6.53;;
64986;SDS011;67903;52.108;9.358;2023-06-26T11:08:07;9.88;;;6.68;;
64986;SDS011;67903;52.108;9.358;2023-06-26T11:10:59;8.85;;;6.90;;
64986;SDS011;67903;52.108;9.358;2023-06-26T11:13:46;8.02;;;6.78;;
64986;SDS011;67903;52.108;9.358;2023-06-26T11:16:32;9.10;;;6.50;;
64986;SDS011;67903;52.108;9.358;2023-06-26T11:19:19;7.97;;;6.20;;
64986;SDS011;67903;52.108;9.358;2023-06-26T11:22:05;6.72;;;5.88;;
64986;SDS011;67903;52.108;9.358;2023-06-26T11:24:52;6.75;;;5.90;;
64986;SDS011;67903;52.108;9.358;2023-06-26T11:27:42;12.68;;;6.22;;
64986;SDS011;67903;52.108;9.358;2023-06-26T11:30:28;7.95;;;6.00;;
64986;SDS011;67903;52.108;9.358;2023-06-26T11:33:14;8.20;;;5.80;;
64986;SDS011;67903;52.108;9.358;2023-06-26T11:36:09;9.02;;;6.32;;
64986;SDS011;67903;52.108;9.358;2023-06-26T11:38:59;11.10;;;6.60;;
64986;SDS011;67903;52.108;9.358;2023-06-26T11:41:45;14.75;;;7.05;;
64986;SDS011;67903;52.108;9.358;2023-06-26T11:44:31;8.90;;;6.70;;
64986;SDS011;67903;52.108;9.358;2023-06-26T11:47:17;7.43;;;6.13;;
64986;SDS011;67903;52.108;9.358;2023-06-26T11:50:04;10.60;;;6.07;;
64986;SDS011;67903;52.108;9.358;2023-06-26T11:52:53;6.53;;;5.40;;
64986;SDS011;67903;52.108;9.358;2023-06-26T11:55:41;7.32;;;5.93;;
64986;SDS011;67903;52.108;9.358;2023-06-26T11:58:30;7.15;;;5.15;;
64986;SDS011;67903;52.108;9.358;2023-06-26T12:01:16;6.28;;;4.57;;
64986;SDS011;67903;52.108;9.358;2023-06-26T12:04:02;5.90;;;4.82;;
64986;SDS011;67903;52.108;9.358;2023-06-26T12:06:50;12.43;;;5.13;;
64986;SDS011;67903;52.108;9.358;2023-06-26T12:09:38;5.25;;;4.65;;
64986;SDS011;67903;52.108;9.358;2023-06-26T12:12:25;7.72;;;5.43;;
64986;SDS011;67903;52.108;9.358;2023-06-26T12:15:13;9.95;;;4.90;;
64986;SDS011;67903;52.108;9.358;2023-06-26T12:18:05;6.90;;;4.53;;
64986;SDS011;67903;52.108;9.358;2023-06-26T12:20:52;9.45;;;4.88;;
64986;SDS011;67903;52.108;9.358;2023-06-26T12:23:39;9.00;;;4.63;;
64986;SDS011;67903;52.108;9.358;2023-06-26T12:26:25;13.15;;;4.40;;
64986;SDS011;67903;52.108;9.358;2023-06-26T12:29:12;11.02;;;4.05;;
64986;SDS011;67903;52.108;9.358;2023-06-26T12:31:58;9.75;;;4.10;;
64986;SDS011;67903;52.108;9.358;2023-06-26T12:34:48;5.57;;;3.85;;
64986;SDS011;67903;52.108;9.358;2023-06-26T12:37:38;6.05;;;3.85;;
64986;SDS011;67903;52.108;9.358;2023-06-26T12:40:25;5.90;;;3.33;;
64986;SDS011;67903;52.108;9.358;2023-06-26T12:43:11;6.63;;;3.70;;
64986;SDS011;67903;52.108;9.358;2023-06-26T12:45:57;10.18;;;4.05;;
64986;SDS011;67903;52.108;9.358;2023-06-26T12:48:43;10.25;;;3.63;;
64986;SDS011;67903;52.108;9.358;2023-06-26T12:51:31;4.45;;;3.25;;
64986;SDS011;67903;52.108;9.358;2023-06-26T12:54:18;3.25;;;2.95;;
64986;SDS011;67903;52.108;9.358;2023-06-26T12:57:03;5.60;;;2.70;;
64986;SDS011;67903;52.108;9.358;2023-06-26T12:59:49;5.95;;;3.13;;
64986;SDS011;67903;52.108;9.358;2023-06-26T13:02:35;6.70;;;3.35;;
64986;SDS011;67903;52.108;9.358;2023-06-26T13:05:21;11.98;;;4.00;;
64986;SDS011;67903;52.108;9.358;2023-06-26T13:08:07;5.38;;;3.00;;
64986;SDS011;67903;52.108;9.358;2023-06-26T13:10:53;6.75;;;3.33;;
64986;SDS011;67903;52.108;9.358;2023-06-26T13:13:39;4.28;;;2.90;;
64986;SDS011;67903;52.108;9.358;2023-06-26T13:16:25;6.80;;;2.97;;
64986;SDS011;67903;52.108;9.358;2023-06-26T13:19:11;5.40;;;2.83;;
64986;SDS011;67903;52.108;9.358;2023-06-26T13:21:57;6.97;;;2.50;;
64986;SDS011;67903;52.108;9.358;2023-06-26T13:24:42;6.07;;;3.08;;
64986;SDS011;67903;52.108;9.358;2023-06-26T13:27:28;4.75;;;2.58;;
64986;SDS011;67903;52.108;9.358;2023-06-26T13:30:14;5.20;;;2.90;;
64986;SDS011;67903;52.108;9.358;2023-06-26T13:33:02;7.25;;;2.67;;
64986;SDS011;67903;52.108;9.358;2023-06-26T13:35:48;5.15;;;2.72;;
64986;SDS011;67903;52.108;9.358;2023-06-26T13:38:35;11.90;;;3.78;;
64986;SDS011;67903;52.108;9.358;2023-06-26T13:41:22;7.13;;;3.15;;
64986;SDS011;67903;52.108;9.358;2023-06-26T13:44:08;4.57;;;2.63;;
64986;SDS011;67903;52.108;9.358;2023-06-26T13:47:05;4.28;;;2.50;;
64986;SDS011;67903;52.108;9.358;2023-06-26T13:49:53;5.28;;;2.45;;
64986;SDS011;67903;52.108;9.358;2023-06-26T13:52:40;5.55;;;2.60;;
64986;SDS011;67903;52.108;9.358;2023-06-26T13:55:25;2.53;;;2.20;;
64986;SDS011;67903;52.108;9.358;2023-06-26T13:58:11;4.57;;;2.75;;
64986;SDS011;67903;52.108;9.358;2023-06-26T14:00:59;4.78;;;2.65;;
64986;SDS011;67903;52.108;9.358;2023-06-26T14:03:45;3.10;;;2.33;;
64986;SDS011;67903;52.108;9.358;2023-06-26T14:06:31;3.40;;;2.30;;
64986;SDS011;67903;52.108;9.358;2023-06-26T14:09:17;3.80;;;2.58;;
64986;SDS011;67903;52.108;9.358;2023-06-26T14:12:03;4.88;;;2.38;;
64986;SDS011;67903;52.108;9.358;2023-06-26T14:14:49;2.88;;;2.38;;
64986;SDS011;67903;52.108;9.358;2023-06-26T14:17:35;5.35;;;2.80;;
64986;SDS011;67903;52.108;9.358;2023-06-26T14:20:24;5.60;;;2.70;;
64986;SDS011;67903;52.108;9.358;2023-06-26T14:23:12;4.20;;;2.60;;
64986;SDS011;67903;52.108;9.358;2023-06-26T14:25:58;3.50;;;2.35;;
64986;SDS011;67903;52.108;9.358;2023-06-26T14:28:44;4.05;;;2.78;;
64986;SDS011;67903;52.108;9.358;2023-06-26T14:31:30;4.15;;;2.55;;
64986;SDS011;67903;52.108;9.358;2023-06-26T14:34:16;4.35;;;2.45;;
64986;SDS011;67903;52.108;9.358;2023-06-26T14:37:02;4.38;;;2.60;;
64986;SDS011;67903;52.108;9.358;2023-06-26T14:39:48;3.53;;;2.53;;
64986;SDS011;67903;52.108;9.358;2023-06-26T14:42:34;3.30;;;2.20;;
64986;SDS011;67903;52.108;9.358;2023-06-26T14:45:20;4.80;;;3.00;;
64986;SDS011;67903;52.108;9.358;2023-06-26T14:48:07;5.05;;;2.60;;
64986;SDS011;67903;52.108;9.358;2023-06-26T14:50:53;3.85;;;2.50;;
64986;SDS011;67903;52.108;9.358;2023-06-26T14:53:39;5.68;;;2.83;;
64986;SDS011;67903;52.108;9.358;2023-06-26T14:56:24;3.40;;;2.38;;
64986;SDS011;67903;52.108;9.358;2023-06-26T14:59:10;3.67;;;2.33;;
64986;SDS011;67903;52.108;9.358;2023-06-26T15:01:57;5.15;;;2.47;;
64986;SDS011;67903;52.108;9.358;2023-06-26T15:04:42;4.25;;;2.58;;
64986;SDS011;67903;52.108;9.358;2023-06-26T15:07:28;4.53;;;2.70;;
64986;SDS011;67903;52.108;9.358;2023-06-26T15:10:14;5.03;;;2.97;;
64986;SDS011;67903;52.108;9.358;2023-06-26T15:13:01;5.20;;;2.45;;
64986;SDS011;67903;52.108;9.358;2023-06-26T15:15:47;5.43;;;2.70;;
64986;SDS011;67903;52.108;9.358;2023-06-26T15:18:33;4.50;;;3.15;;
64986;SDS011;67903;52.108;9.358;2023-06-26T15:21:18;3.95;;;2.58;;
64986;SDS011;67903;52.108;9.358;2023-06-26T15:24:04;4.50;;;2.65;;
64986;SDS011;67903;52.108;9.358;2023-06-26T15:26:50;3.55;;;2.47;;
64986;SDS011;67903;52.108;9.358;2023-06-26T15:29:36;3.22;;;2.53;;
64986;SDS011;67903;52.108;9.358;2023-06-26T15:32:23;3.45;;;2.42;;
64986;SDS011;67903;52.108;9.358;2023-06-26T15:35:08;4.45;;;2.58;;
64986;SDS011;67903;52.108;9.358;2023-06-26T15:37:54;3.60;;;2.50;;
64986;SDS011;67903;52.108;9.358;2023-06-26T15:40:40;4.88;;;2.45;;
64986;SDS011;67903;52.108;9.358;2023-06-26T15:43:26;4.22;;;2.33;;
64986;SDS011;67903;52.108;9.358;2023-06-26T15:46:12;4.75;;;2.35;;
64986;SDS011;67903;52.108;9.358;2023-06-26T15:48:58;5.25;;;2.47;;
64986;SDS011;67903;52.108;9.358;2023-06-26T15:51:44;4.28;;;2.55;;
64986;SDS011;67903;52.108;9.358;2023-06-26T15:54:32;6.05;;;2.35;;
64986;SDS011;67903;52.108;9.358;2023-06-26T15:57:18;4.78;;;2.00;;
64986;SDS011;67903;52.108;9.358;2023-06-26T16:00:05;3.70;;;2.00;;
64986;SDS011;67903;52.108;9.358;2023-06-26T16:02:57;4.05;;;2.10;;
64986;SDS011;67903;52.108;9.358;2023-06-26T16:05:43;3.35;;;2.20;;
64986;SDS011;67903;52.108;9.358;2023-06-26T16:08:29;4.40;;;1.95;;
64986;SDS011;67903;52.108;9.358;2023-06-26T16:11:15;3.67;;;2.10;;
64986;SDS011;67903;52.108;9.358;2023-06-26T16:14:01;4.00;;;2.15;;
64986;SDS011;67903;52.108;9.358;2023-06-26T16:16:47;3.10;;;2.13;;
64986;SDS011;67903;52.108;9.358;2023-06-26T16:19:33;3.58;;;1.90;;
64986;SDS011;67903;52.108;9.358;2023-06-26T16:22:19;2.47;;;1.88;;
64986;SDS011;67903;52.108;9.358;2023-06-26T16:25:05;5.72;;;2.17;;
64986;SDS011;67903;52.108;9.358;2023-06-26T16:27:51;3.58;;;2.08;;
64986;SDS011;67903;52.108;9.358;2023-06-26T16:30:37;3.80;;;2.10;;
64986;SDS011;67903;52.108;9.358;2023-06-26T16:33:23;4.32;;;2.38;;
64986;SDS011;67903;52.108;9.358;2023-06-26T16:36:08;3.20;;;2.08;;
64986;SDS011;67903;52.108;9.358;2023-06-26T16:38:55;4.82;;;2.08;;
64986;SDS011;67903;52.108;9.358;2023-06-26T16:41:41;2.67;;;2.38;;
64986;SDS011;67903;52.108;9.358;2023-06-26T16:44:27;2.95;;;1.85;;
64986;SDS011;67903;52.108;9.358;2023-06-26T16:47:13;6.03;;;2.30;;